Terminal Aerodrome Forecast
Issued by NWS

Current Version | Previous Version | Text Only | Print | Product List | Glossary On
Versions: 1 2 3 4 5 6 7 8 9 10 11 12 13 14 15 16 17 18 19
000
FTAK31 PAFA 250530
TAFAOT
TAF
PAOT 250530Z 2506/2606 13014KT 3SM -SN FEW005 BKN015 OVC020
     FM252100 15020KT 2SM -SN BR OVC004
     FM260400 21018KT 6SM -SN OVC007=

USA.gov is the U.S. government's official web portal to all federal, state and local government web resources and services.